sensor_id;sensor_type;location;lat;lon;timestamp;P1;durP1;ratioP1;P2;durP2;ratioP2
50319;SDS011;36226;53.464;9.852;2022-10-23T14:57:01;4.97;;;2.85;;
50319;SDS011;36226;53.464;9.852;2022-10-23T14:59:27;5.60;;;2.28;;
50319;SDS011;36226;53.464;9.852;2022-10-23T15:01:52;5.30;;;2.17;;
50319;SDS011;36226;53.464;9.852;2022-10-23T15:04:17;6.75;;;2.30;;
50319;SDS011;36226;53.464;9.852;2022-10-23T15:06:43;3.97;;;2.42;;
50319;SDS011;36226;53.464;9.852;2022-10-23T15:09:10;5.78;;;2.35;;
50319;SDS011;36226;53.464;9.852;2022-10-23T15:11:35;4.97;;;2.50;;
50319;SDS011;36226;53.464;9.852;2022-10-23T15:14:00;9.65;;;2.40;;
50319;SDS011;36226;53.464;9.852;2022-10-23T15:16:26;6.25;;;2.40;;
50319;SDS011;36226;53.464;9.852;2022-10-23T15:18:51;7.45;;;2.50;;
50319;SDS011;36226;53.464;9.852;2022-10-23T15:21:17;5.20;;;2.20;;
50319;SDS011;36226;53.464;9.852;2022-10-23T15:23:43;6.43;;;2.17;;
50319;SDS011;36226;53.464;9.852;2022-10-23T15:26:10;6.10;;;2.50;;
50319;SDS011;36226;53.464;9.852;2022-10-23T15:28:37;7.30;;;2.03;;
50319;SDS011;36226;53.464;9.852;2022-10-23T15:31:03;5.05;;;2.42;;
50319;SDS011;36226;53.464;9.852;2022-10-23T15:33:29;5.25;;;2.40;;
50319;SDS011;36226;53.464;9.852;2022-10-23T15:35:54;5.43;;;2.17;;
50319;SDS011;36226;53.464;9.852;2022-10-23T15:38:19;4.55;;;2.35;;
50319;SDS011;36226;53.464;9.852;2022-10-23T15:40:46;5.00;;;2.25;;
50319;SDS011;36226;53.464;9.852;2022-10-23T15:43:12;3.67;;;2.03;;
50319;SDS011;36226;53.464;9.852;2022-10-23T15:45:38;5.15;;;2.30;;
50319;SDS011;36226;53.464;9.852;2022-10-23T15:48:04;5.38;;;2.22;;
50319;SDS011;36226;53.464;9.852;2022-10-23T15:50:30;5.40;;;2.47;;
50319;SDS011;36226;53.464;9.852;2022-10-23T15:52:57;8.35;;;2.95;;
50319;SDS011;36226;53.464;9.852;2022-10-23T15:55:22;7.82;;;3.03;;
50319;SDS011;36226;53.464;9.852;2022-10-23T15:57:47;7.85;;;3.33;;
50319;SDS011;36226;53.464;9.852;2022-10-23T16:00:13;6.72;;;3.47;;
50319;SDS011;36226;53.464;9.852;2022-10-23T16:02:38;9.18;;;3.45;;
50319;SDS011;36226;53.464;9.852;2022-10-23T16:05:04;7.30;;;3.55;;
50319;SDS011;36226;53.464;9.852;2022-10-23T16:07:29;11.23;;;3.30;;
50319;SDS011;36226;53.464;9.852;2022-10-23T16:09:55;7.20;;;2.97;;
50319;SDS011;36226;53.464;9.852;2022-10-23T16:12:20;7.30;;;2.90;;
50319;SDS011;36226;53.464;9.852;2022-10-23T16:14:46;8.80;;;2.90;;
50319;SDS011;36226;53.464;9.852;2022-10-23T16:17:11;8.20;;;3.05;;
50319;SDS011;36226;53.464;9.852;2022-10-23T16:19:39;8.40;;;3.13;;
50319;SDS011;36226;53.464;9.852;2022-10-23T16:22:05;6.88;;;3.08;;
50319;SDS011;36226;53.464;9.852;2022-10-23T16:24:31;6.78;;;2.80;;
50319;SDS011;36226;53.464;9.852;2022-10-23T16:26:57;5.82;;;3.15;;
50319;SDS011;36226;53.464;9.852;2022-10-23T16:29:23;8.30;;;2.80;;
50319;SDS011;36226;53.464;9.852;2022-10-23T16:31:49;5.30;;;2.70;;
50319;SDS011;36226;53.464;9.852;2022-10-23T16:34:15;5.40;;;2.88;;
50319;SDS011;36226;53.464;9.852;2022-10-23T16:36:41;5.70;;;2.90;;
50319;SDS011;36226;53.464;9.852;2022-10-23T16:39:08;7.72;;;3.30;;
50319;SDS011;36226;53.464;9.852;2022-10-23T16:41:33;4.97;;;2.58;;
50319;SDS011;36226;53.464;9.852;2022-10-23T16:43:59;8.75;;;3.15;;
50319;SDS011;36226;53.464;9.852;2022-10-23T16:46:24;4.78;;;3.20;;
50319;SDS011;36226;53.464;9.852;2022-10-23T16:48:50;5.47;;;3.25;;
50319;SDS011;36226;53.464;9.852;2022-10-23T16:51:17;5.95;;;3.20;;
50319;SDS011;36226;53.464;9.852;2022-10-23T16:53:44;8.10;;;3.50;;
50319;SDS011;36226;53.464;9.852;2022-10-23T16:56:11;7.70;;;3.50;;
50319;SDS011;36226;53.464;9.852;2022-10-23T16:58:37;5.68;;;3.20;;
50319;SDS011;36226;53.464;9.852;2022-10-23T17:01:13;7.82;;;3.60;;
50319;SDS011;36226;53.464;9.852;2022-10-23T17:03:43;7.28;;;3.60;;
50319;SDS011;36226;53.464;9.852;2022-10-23T17:06:12;5.45;;;3.20;;
50319;SDS011;36226;53.464;9.852;2022-10-23T17:08:38;6.45;;;3.20;;
50319;SDS011;36226;53.464;9.852;2022-10-23T17:11:15;7.22;;;3.17;;
50319;SDS011;36226;53.464;9.852;2022-10-23T17:13:49;8.10;;;3.30;;
50319;SDS011;36226;53.464;9.852;2022-10-23T17:16:17;8.82;;;3.78;;
50319;SDS011;36226;53.464;9.852;2022-10-23T17:18:45;9.68;;;3.50;;
50319;SDS011;36226;53.464;9.852;2022-10-23T17:21:11;8.43;;;3.05;;
50319;SDS011;36226;53.464;9.852;2022-10-23T17:23:38;8.43;;;3.40;;
50319;SDS011;36226;53.464;9.852;2022-10-23T17:26:06;4.35;;;2.78;;
50319;SDS011;36226;53.464;9.852;2022-10-23T17:28:32;7.53;;;2.92;;
50319;SDS011;36226;53.464;9.852;2022-10-23T17:31:01;6.20;;;2.90;;
50319;SDS011;36226;53.464;9.852;2022-10-23T17:33:27;7.20;;;4.07;;
50319;SDS011;36226;53.464;9.852;2022-10-23T17:35:52;9.60;;;3.90;;
50319;SDS011;36226;53.464;9.852;2022-10-23T17:38:18;8.82;;;4.97;;
50319;SDS011;36226;53.464;9.852;2022-10-23T17:40:44;7.00;;;4.10;;
50319;SDS011;36226;53.464;9.852;2022-10-23T17:43:11;8.18;;;3.17;;
50319;SDS011;36226;53.464;9.852;2022-10-23T17:45:37;6.30;;;2.88;;
50319;SDS011;36226;53.464;9.852;2022-10-23T17:48:09;5.15;;;2.70;;
50319;SDS011;36226;53.464;9.852;2022-10-23T17:50:36;7.25;;;3.15;;
50319;SDS011;36226;53.464;9.852;2022-10-23T17:53:01;6.07;;;3.15;;
50319;SDS011;36226;53.464;9.852;2022-10-23T17:55:27;6.20;;;3.20;;
50319;SDS011;36226;53.464;9.852;2022-10-23T17:57:52;7.63;;;3.20;;
50319;SDS011;36226;53.464;9.852;2022-10-23T18:00:17;5.15;;;2.53;;
50319;SDS011;36226;53.464;9.852;2022-10-23T18:02:43;5.68;;;3.13;;
50319;SDS011;36226;53.464;9.852;2022-10-23T18:05:08;5.43;;;2.90;;
50319;SDS011;36226;53.464;9.852;2022-10-23T18:07:35;7.22;;;3.35;;
50319;SDS011;36226;53.464;9.852;2022-10-23T18:10:00;6.57;;;3.00;;
50319;SDS011;36226;53.464;9.852;2022-10-23T18:12:25;8.55;;;2.85;;
50319;SDS011;36226;53.464;9.852;2022-10-23T18:14:52;7.00;;;3.25;;
50319;SDS011;36226;53.464;9.852;2022-10-23T18:17:18;4.13;;;2.80;;
50319;SDS011;36226;53.464;9.852;2022-10-23T18:19:43;10.57;;;2.97;;
50319;SDS011;36226;53.464;9.852;2022-10-23T18:22:08;7.57;;;3.17;;
50319;SDS011;36226;53.464;9.852;2022-10-23T18:24:34;6.75;;;3.85;;
50319;SDS011;36226;53.464;9.852;2022-10-23T18:27:00;4.68;;;3.20;;
50319;SDS011;36226;53.464;9.852;2022-10-23T18:29:25;7.82;;;3.50;;
50319;SDS011;36226;53.464;9.852;2022-10-23T18:31:51;7.18;;;3.60;;
50319;SDS011;36226;53.464;9.852;2022-10-23T18:34:17;7.85;;;3.50;;
50319;SDS011;36226;53.464;9.852;2022-10-23T18:36:43;8.15;;;3.00;;
50319;SDS011;36226;53.464;9.852;2022-10-23T18:39:11;6.10;;;3.40;;
50319;SDS011;36226;53.464;9.852;2022-10-23T18:41:39;5.97;;;3.10;;
50319;SDS011;36226;53.464;9.852;2022-10-23T18:44:06;8.57;;;3.17;;
50319;SDS011;36226;53.464;9.852;2022-10-23T18:46:31;12.50;;;3.10;;
50319;SDS011;36226;53.464;9.852;2022-10-23T18:48:57;5.85;;;2.95;;
50319;SDS011;36226;53.464;9.852;2022-10-23T18:51:23;6.45;;;3.13;;
50319;SDS011;36226;53.464;9.852;2022-10-23T18:53:51;4.40;;;3.10;;
50319;SDS011;36226;53.464;9.852;2022-10-23T18:56:17;7.95;;;3.38;;
50319;SDS011;36226;53.464;9.852;2022-10-23T18:58:47;5.53;;;2.97;;
50319;SDS011;36226;53.464;9.852;2022-10-23T19:01:13;7.15;;;3.10;;
50319;SDS011;36226;53.464;9.852;2022-10-23T19:03:39;9.05;;;2.88;;
50319;SDS011;36226;53.464;9.852;2022-10-23T19:06:05;9.00;;;2.92;;
50319;SDS011;36226;53.464;9.852;2022-10-23T19:08:35;8.23;;;3.20;;
50319;SDS011;36226;53.464;9.852;2022-10-23T19:11:07;10.07;;;3.10;;
50319;SDS011;36226;53.464;9.852;2022-10-23T19:13:36;6.10;;;3.15;;
50319;SDS011;36226;53.464;9.852;2022-10-23T19:16:02;9.95;;;2.80;;
50319;SDS011;36226;53.464;9.852;2022-10-23T19:18:29;5.10;;;2.90;;
50319;SDS011;36226;53.464;9.852;2022-10-23T19:20:55;6.03;;;2.80;;
50319;SDS011;36226;53.464;9.852;2022-10-23T19:23:20;7.35;;;2.70;;
50319;SDS011;36226;53.464;9.852;2022-10-23T19:25:46;5.85;;;2.67;;
50319;SDS011;36226;53.464;9.852;2022-10-23T19:28:12;5.90;;;2.55;;
50319;SDS011;36226;53.464;9.852;2022-10-23T19:30:37;5.82;;;2.80;;
50319;SDS011;36226;53.464;9.852;2022-10-23T19:33:03;5.70;;;2.80;;
50319;SDS011;36226;53.464;9.852;2022-10-23T19:38:21;7.13;;;2.80;;
50319;SDS011;36226;53.464;9.852;2022-10-23T20:02:51;5.63;;;1.95;;
50319;SDS011;36226;53.464;9.852;2022-10-23T20:05:23;6.45;;;1.63;;
50319;SDS011;36226;53.464;9.852;2022-10-23T20:07:48;2.60;;;1.60;;
50319;SDS011;36226;53.464;9.852;2022-10-23T20:10:16;5.25;;;1.98;;
50319;SDS011;36226;53.464;9.852;2022-10-23T20:12:42;3.70;;;1.75;;
50319;SDS011;36226;53.464;9.852;2022-10-23T20:15:07;4.35;;;1.77;;
50319;SDS011;36226;53.464;9.852;2022-10-23T20:17:33;6.50;;;2.33;;
50319;SDS011;36226;53.464;9.852;2022-10-23T20:19:59;4.70;;;1.63;;
50319;SDS011;36226;53.464;9.852;2022-10-23T20:22:24;4.65;;;1.85;;
50319;SDS011;36226;53.464;9.852;2022-10-23T20:24:50;3.28;;;1.80;;
50319;SDS011;36226;53.464;9.852;2022-10-23T20:27:15;5.53;;;1.92;;
50319;SDS011;36226;53.464;9.852;2022-10-23T20:29:42;4.40;;;1.65;;
50319;SDS011;36226;53.464;9.852;2022-10-23T20:32:08;6.80;;;2.25;;
50319;SDS011;36226;53.464;9.852;2022-10-23T20:34:35;4.60;;;1.60;;
50319;SDS011;36226;53.464;9.852;2022-10-23T20:37:01;5.70;;;2.00;;
50319;SDS011;36226;53.464;9.852;2022-10-23T20:39:27;4.97;;;1.92;;
50319;SDS011;36226;53.464;9.852;2022-10-23T20:41:53;7.72;;;1.98;;
50319;SDS011;36226;53.464;9.852;2022-10-23T20:44:20;5.07;;;2.00;;
50319;SDS011;36226;53.464;9.852;2022-10-23T20:46:45;7.05;;;1.98;;
50319;SDS011;36226;53.464;9.852;2022-10-23T20:49:11;3.53;;;1.88;;
50319;SDS011;36226;53.464;9.852;2022-10-23T20:51:37;5.53;;;2.00;;
50319;SDS011;36226;53.464;9.852;2022-10-23T20:54:03;3.10;;;1.83;;
50319;SDS011;36226;53.464;9.852;2022-10-23T20:56:29;3.85;;;1.85;;
50319;SDS011;36226;53.464;9.852;2022-10-23T20:58:57;8.00;;;1.90;;
50319;SDS011;36226;53.464;9.852;2022-10-23T21:01:23;4.68;;;1.80;;
50319;SDS011;36226;53.464;9.852;2022-10-23T21:03:50;4.00;;;1.77;;
50319;SDS011;36226;53.464;9.852;2022-10-23T21:06:16;2.92;;;1.65;;
50319;SDS011;36226;53.464;9.852;2022-10-23T21:08:42;3.15;;;1.52;;
50319;SDS011;36226;53.464;9.852;2022-10-23T21:11:11;5.93;;;1.67;;
50319;SDS011;36226;53.464;9.852;2022-10-23T21:13:38;4.43;;;1.50;;
50319;SDS011;36226;53.464;9.852;2022-10-23T21:16:10;4.60;;;1.70;;
50319;SDS011;36226;53.464;9.852;2022-10-23T21:18:41;3.13;;;1.30;;
50319;SDS011;36226;53.464;9.852;2022-10-23T21:21:06;2.47;;;1.02;;
50319;SDS011;36226;53.464;9.852;2022-10-23T21:23:32;3.75;;;0.98;;
50319;SDS011;36226;53.464;9.852;2022-10-23T21:25:57;2.97;;;1.15;;
50319;SDS011;36226;53.464;9.852;2022-10-23T21:28:23;4.57;;;0.95;;
50319;SDS011;36226;53.464;9.852;2022-10-23T21:30:48;3.08;;;0.90;;
50319;SDS011;36226;53.464;9.852;2022-10-23T21:33:14;3.78;;;1.00;;
50319;SDS011;36226;53.464;9.852;2022-10-23T21:35:39;0.88;;;0.50;;
50319;SDS011;36226;53.464;9.852;2022-10-23T21:38:04;1.58;;;0.70;;
50319;SDS011;36226;53.464;9.852;2022-10-23T21:40:30;3.00;;;1.00;;
50319;SDS011;36226;53.464;9.852;2022-10-23T21:42:55;4.57;;;0.63;;
50319;SDS011;36226;53.464;9.852;2022-10-23T21:45:20;1.48;;;0.68;;
50319;SDS011;36226;53.464;9.852;2022-10-23T21:47:46;1.70;;;0.80;;
50319;SDS011;36226;53.464;9.852;2022-10-23T21:50:11;5.28;;;0.80;;
50319;SDS011;36226;53.464;9.852;2022-10-23T21:52:36;2.35;;;0.50;;
50319;SDS011;36226;53.464;9.852;2022-10-23T21:55:02;4.35;;;0.95;;
50319;SDS011;36226;53.464;9.852;2022-10-23T21:57:29;4.38;;;1.40;;
50319;SDS011;36226;53.464;9.852;2022-10-23T21:59:55;2.83;;;0.65;;
50319;SDS011;36226;53.464;9.852;2022-10-23T22:02:20;4.13;;;0.88;;
50319;SDS011;36226;53.464;9.852;2022-10-23T22:04:45;1.85;;;0.85;;
50319;SDS011;36226;53.464;9.852;2022-10-23T22:07:10;3.13;;;0.70;;
50319;SDS011;36226;53.464;9.852;2022-10-23T22:09:38;2.92;;;0.80;;
50319;SDS011;36226;53.464;9.852;2022-10-23T22:12:04;5.22;;;0.80;;
50319;SDS011;36226;53.464;9.852;2022-10-23T22:14:30;1.90;;;0.60;;
50319;SDS011;36226;53.464;9.852;2022-10-23T22:16:55;1.02;;;0.50;;
50319;SDS011;36226;53.464;9.852;2022-10-23T22:19:20;2.88;;;0.70;;
50319;SDS011;36226;53.464;9.852;2022-10-23T22:21:47;2.22;;;0.65;;
50319;SDS011;36226;53.464;9.852;2022-10-23T22:24:13;2.35;;;0.50;;
50319;SDS011;36226;53.464;9.852;2022-10-23T22:26:42;2.58;;;0.60;;
50319;SDS011;36226;53.464;9.852;2022-10-23T22:29:10;2.88;;;0.93;;
50319;SDS011;36226;53.464;9.852;2022-10-23T22:31:38;3.00;;;0.70;;
50319;SDS011;36226;53.464;9.852;2022-10-23T22:34:04;3.47;;;0.70;;
50319;SDS011;36226;53.464;9.852;2022-10-23T22:36:31;2.17;;;0.68;;
50319;SDS011;36226;53.464;9.852;2022-10-23T22:38:59;1.85;;;0.60;;
50319;SDS011;36226;53.464;9.852;2022-10-23T22:41:25;2.03;;;0.60;;
50319;SDS011;36226;53.464;9.852;2022-10-23T22:43:54;1.48;;;0.70;;
50319;SDS011;36226;53.464;9.852;2022-10-23T22:46:23;2.40;;;0.70;;
50319;SDS011;36226;53.464;9.852;2022-10-23T22:48:50;2.60;;;0.55;;
50319;SDS011;36226;53.464;9.852;2022-10-23T22:51:17;4.43;;;0.50;;
50319;SDS011;36226;53.464;9.852;2022-10-23T22:53:43;2.25;;;0.60;;
50319;SDS011;36226;53.464;9.852;2022-10-23T22:56:10;1.55;;;0.40;;
50319;SDS011;36226;53.464;9.852;2022-10-23T22:58:40;2.03;;;0.50;;
50319;SDS011;36226;53.464;9.852;2022-10-23T23:03:36;2.28;;;0.98;;
50319;SDS011;36226;53.464;9.852;2022-10-23T23:06:02;2.35;;;0.77;;
50319;SDS011;36226;53.464;9.852;2022-10-23T23:08:29;1.58;;;1.00;;
50319;SDS011;36226;53.464;9.852;2022-10-23T23:10:55;2.72;;;0.90;;
50319;SDS011;36226;53.464;9.852;2022-10-23T23:13:21;3.90;;;1.08;;
50319;SDS011;36226;53.464;9.852;2022-10-23T23:15:46;3.78;;;1.17;;
50319;SDS011;36226;53.464;9.852;2022-10-23T23:18:11;4.97;;;1.40;;
50319;SDS011;36226;53.464;9.852;2022-10-23T23:20:37;3.78;;;1.33;;
50319;SDS011;36226;53.464;9.852;2022-10-23T23:23:02;5.78;;;3.00;;
50319;SDS011;36226;53.464;9.852;2022-10-23T23:25:28;1.92;;;1.40;;
50319;SDS011;36226;53.464;9.852;2022-10-23T23:27:53;3.72;;;1.40;;
50319;SDS011;36226;53.464;9.852;2022-10-23T23:30:18;3.33;;;1.40;;
50319;SDS011;36226;53.464;9.852;2022-10-23T23:32:46;3.35;;;1.42;;
50319;SDS011;36226;53.464;9.852;2022-10-23T23:35:11;4.00;;;1.25;;
50319;SDS011;36226;53.464;9.852;2022-10-23T23:37:37;4.93;;;1.58;;
50319;SDS011;36226;53.464;9.852;2022-10-23T23:40:02;2.88;;;1.60;;
50319;SDS011;36226;53.464;9.852;2022-10-23T23:42:28;3.72;;;1.60;;
50319;SDS011;36226;53.464;9.852;2022-10-23T23:44:53;5.07;;;1.60;;
50319;SDS011;36226;53.464;9.852;2022-10-23T23:47:19;3.38;;;1.50;;
50319;SDS011;36226;53.464;9.852;2022-10-23T23:49:44;3.20;;;1.40;;
50319;SDS011;36226;53.464;9.852;2022-10-23T23:52:09;1.90;;;1.33;;
50319;SDS011;36226;53.464;9.852;2022-10-23T23:54:35;3.72;;;2.05;;
50319;SDS011;36226;53.464;9.852;2022-10-23T23:57:00;2.97;;;1.30;;
50319;SDS011;36226;53.464;9.852;2022-10-23T23:59:29;2.67;;;1.30;;
